sensor_id;sensor_type;location;lat;lon;timestamp;temperature;humidity
21518;DHT22;61765;45.794;24.150;2024-01-25T00:02:59;8.60;88.60
21518;DHT22;61765;45.794;24.150;2024-01-25T00:11:07;8.90;88.50
21518;DHT22;61765;45.794;24.150;2024-01-25T00:19:13;9.00;88.80
21518;DHT22;61765;45.794;24.150;2024-01-25T00:27:21;9.10;88.20
21518;DHT22;61765;45.794;24.150;2024-01-25T00:35:28;9.20;88.10
21518;DHT22;61765;45.794;24.150;2024-01-25T00:43:37;9.20;87.80
21518;DHT22;61765;45.794;24.150;2024-01-25T00:51:46;9.20;87.30
21518;DHT22;61765;45.794;24.150;2024-01-25T00:59:56;9.40;86.80
21518;DHT22;61765;45.794;24.150;2024-01-25T01:08:03;9.30;87.40
21518;DHT22;61765;45.794;24.150;2024-01-25T01:16:11;9.30;87.40
21518;DHT22;61765;45.794;24.150;2024-01-25T01:24:17;9.40;87.70
21518;DHT22;61765;45.794;24.150;2024-01-25T01:32:26;9.30;88.20
21518;DHT22;61765;45.794;24.150;2024-01-25T01:40:31;9.40;88.30
21518;DHT22;61765;45.794;24.150;2024-01-25T01:48:40;9.30;88.30
21518;DHT22;61765;45.794;24.150;2024-01-25T01:56:46;9.60;87.80
21518;DHT22;61765;45.794;24.150;2024-01-25T02:04:55;9.70;87.90
21518;DHT22;61765;45.794;24.150;2024-01-25T02:13:01;9.80;88.30
21518;DHT22;61765;45.794;24.150;2024-01-25T02:21:09;9.60;88.90
21518;DHT22;61765;45.794;24.150;2024-01-25T02:29:17;9.60;88.50
21518;DHT22;61765;45.794;24.150;2024-01-25T02:37:23;9.50;88.80
21518;DHT22;61765;45.794;24.150;2024-01-25T02:45:31;9.40;89.10
21518;DHT22;61765;45.794;24.150;2024-01-25T02:53:37;9.50;88.80
21518;DHT22;61765;45.794;24.150;2024-01-25T03:01:46;9.60;88.50
21518;DHT22;61765;45.794;24.150;2024-01-25T03:09:52;9.60;88.40
21518;DHT22;61765;45.794;24.150;2024-01-25T03:18:01;9.50;88.40
21518;DHT22;61765;45.794;24.150;2024-01-25T03:26:07;9.60;87.80
21518;DHT22;61765;45.794;24.150;2024-01-25T03:34:15;9.70;87.10
21518;DHT22;61765;45.794;24.150;2024-01-25T03:42:21;9.80;86.80
21518;DHT22;61765;45.794;24.150;2024-01-25T03:50:29;10.00;86.20
21518;DHT22;61765;45.794;24.150;2024-01-25T03:58:35;10.00;86.40
21518;DHT22;61765;45.794;24.150;2024-01-25T04:06:44;10.20;86.10
21518;DHT22;61765;45.794;24.150;2024-01-25T04:14:51;10.30;85.20
21518;DHT22;61765;45.794;24.150;2024-01-25T04:22:59;10.20;85.20
21518;DHT22;61765;45.794;24.150;2024-01-25T04:31:04;10.20;85.50
21518;DHT22;61765;45.794;24.150;2024-01-25T04:39:13;10.20;86.00
21518;DHT22;61765;45.794;24.150;2024-01-25T04:47:18;10.40;86.20
21518;DHT22;61765;45.794;24.150;2024-01-25T04:55:27;10.20;86.10
21518;DHT22;61765;45.794;24.150;2024-01-25T05:03:32;10.20;86.30
21518;DHT22;61765;45.794;24.150;2024-01-25T05:11:41;10.10;86.40
21518;DHT22;61765;45.794;24.150;2024-01-25T05:19:47;10.20;85.90
21518;DHT22;61765;45.794;24.150;2024-01-25T05:27:56;10.30;86.00
21518;DHT22;61765;45.794;24.150;2024-01-25T05:36:02;10.20;85.60
21518;DHT22;61765;45.794;24.150;2024-01-25T05:44:11;10.40;85.10
21518;DHT22;61765;45.794;24.150;2024-01-25T05:52:17;10.40;84.70
21518;DHT22;61765;45.794;24.150;2024-01-25T06:00:26;10.50;85.00
21518;DHT22;61765;45.794;24.150;2024-01-25T06:08:33;10.60;84.50
21518;DHT22;61765;45.794;24.150;2024-01-25T06:16:41;10.60;84.10
21518;DHT22;61765;45.794;24.150;2024-01-25T06:24:47;10.50;84.10
21518;DHT22;61765;45.794;24.150;2024-01-25T06:32:55;10.40;83.40
21518;DHT22;61765;45.794;24.150;2024-01-25T06:41:01;10.60;82.60
21518;DHT22;61765;45.794;24.150;2024-01-25T06:49:09;10.50;82.70
21518;DHT22;61765;45.794;24.150;2024-01-25T06:57:15;10.60;82.50
21518;DHT22;61765;45.794;24.150;2024-01-25T07:06:00;10.80;82.00
21518;DHT22;61765;45.794;24.150;2024-01-25T07:14:06;10.80;81.80
21518;DHT22;61765;45.794;24.150;2024-01-25T07:22:15;10.70;81.70
21518;DHT22;61765;45.794;24.150;2024-01-25T07:30:21;10.60;81.60
21518;DHT22;61765;45.794;24.150;2024-01-25T07:38:29;10.80;81.10
21518;DHT22;61765;45.794;24.150;2024-01-25T07:46:35;10.80;80.40
21518;DHT22;61765;45.794;24.150;2024-01-25T07:54:43;11.00;80.00
21518;DHT22;61765;45.794;24.150;2024-01-25T08:02:49;11.00;79.80
21518;DHT22;61765;45.794;24.150;2024-01-25T08:10:57;11.30;79.10
21518;DHT22;61765;45.794;24.150;2024-01-25T08:19:03;11.80;77.90
21518;DHT22;61765;45.794;24.150;2024-01-25T08:27:12;12.10;75.80
21518;DHT22;61765;45.794;24.150;2024-01-25T08:35:19;12.50;74.60
21518;DHT22;61765;45.794;24.150;2024-01-25T08:43:28;12.10;75.60
21518;DHT22;61765;45.794;24.150;2024-01-25T08:51:34;11.60;77.60
21518;DHT22;61765;45.794;24.150;2024-01-25T08:59:42;11.20;79.50
21518;DHT22;61765;45.794;24.150;2024-01-25T09:07:48;11.20;80.20
21518;DHT22;61765;45.794;24.150;2024-01-25T09:15:56;11.40;79.80
21518;DHT22;61765;45.794;24.150;2024-01-25T09:24:03;11.50;78.60
21518;DHT22;61765;45.794;24.150;2024-01-25T09:32:12;11.60;78.90
21518;DHT22;61765;45.794;24.150;2024-01-25T09:40:18;11.60;77.80
21518;DHT22;61765;45.794;24.150;2024-01-25T09:48:28;11.70;78.60
21518;DHT22;61765;45.794;24.150;2024-01-25T09:56:35;12.30;77.40
21518;DHT22;61765;45.794;24.150;2024-01-25T10:04:49;14.60;72.40
21518;DHT22;61765;45.794;24.150;2024-01-25T10:12:55;16.30;67.00
21518;DHT22;61765;45.794;24.150;2024-01-25T10:21:04;15.40;67.50
21518;DHT22;61765;45.794;24.150;2024-01-25T10:29:10;14.20;70.40
21518;DHT22;61765;45.794;24.150;2024-01-25T10:37:19;13.40;73.10
21518;DHT22;61765;45.794;24.150;2024-01-25T10:45:25;13.40;73.20
21518;DHT22;61765;45.794;24.150;2024-01-25T10:53:34;13.00;73.80
21518;DHT22;61765;45.794;24.150;2024-01-25T11:01:43;12.80;74.30
21518;DHT22;61765;45.794;24.150;2024-01-25T11:09:53;12.50;74.80
21518;DHT22;61765;45.794;24.150;2024-01-25T11:18:01;12.40;75.60
21518;DHT22;61765;45.794;24.150;2024-01-25T11:26:11;12.60;74.40
21518;DHT22;61765;45.794;24.150;2024-01-25T11:34:17;12.60;74.70
21518;DHT22;61765;45.794;24.150;2024-01-25T11:42:26;12.90;73.20
21518;DHT22;61765;45.794;24.150;2024-01-25T11:50:33;13.30;72.60
21518;DHT22;61765;45.794;24.150;2024-01-25T11:58:41;13.40;72.50
21518;DHT22;61765;45.794;24.150;2024-01-25T12:06:51;12.80;73.80
21518;DHT22;61765;45.794;24.150;2024-01-25T12:15:03;12.80;75.40
21518;DHT22;61765;45.794;24.150;2024-01-25T12:23:09;13.20;74.80
21518;DHT22;61765;45.794;24.150;2024-01-25T12:31:18;13.10;74.30
21518;DHT22;61765;45.794;24.150;2024-01-25T12:39:24;13.10;74.60
21518;DHT22;61765;45.794;24.150;2024-01-25T12:47:32;13.10;75.00
21518;DHT22;61765;45.794;24.150;2024-01-25T12:55:39;12.90;75.10
21518;DHT22;61765;45.794;24.150;2024-01-25T13:03:47;12.50;76.10
21518;DHT22;61765;45.794;24.150;2024-01-25T13:11:53;12.10;77.10
21518;DHT22;61765;45.794;24.150;2024-01-25T13:20:02;11.90;77.90
21518;DHT22;61765;45.794;24.150;2024-01-25T13:28:08;11.80;78.00
21518;DHT22;61765;45.794;24.150;2024-01-25T13:36:23;11.90;77.40
21518;DHT22;61765;45.794;24.150;2024-01-25T13:44:29;11.20;79.40
21518;DHT22;61765;45.794;24.150;2024-01-25T13:52:37;11.30;79.20
21518;DHT22;61765;45.794;24.150;2024-01-25T14:00:43;11.50;78.70
21518;DHT22;61765;45.794;24.150;2024-01-25T14:08:52;11.40;78.80
21518;DHT22;61765;45.794;24.150;2024-01-25T14:16:58;11.30;78.90
21518;DHT22;61765;45.794;24.150;2024-01-25T14:25:07;11.30;78.60
21518;DHT22;61765;45.794;24.150;2024-01-25T14:33:13;11.40;78.40
21518;DHT22;61765;45.794;24.150;2024-01-25T14:41:22;11.50;78.30
21518;DHT22;61765;45.794;24.150;2024-01-25T14:49:27;11.30;79.00
21518;DHT22;61765;45.794;24.150;2024-01-25T14:57:36;11.20;79.90
21518;DHT22;61765;45.794;24.150;2024-01-25T15:05:42;10.80;81.90
21518;DHT22;61765;45.794;24.150;2024-01-25T15:13:50;10.60;82.80
21518;DHT22;61765;45.794;24.150;2024-01-25T15:21:56;10.50;82.70
21518;DHT22;61765;45.794;24.150;2024-01-25T15:30:06;10.20;83.90
21518;DHT22;61765;45.794;24.150;2024-01-25T15:38:12;10.00;84.90
21518;DHT22;61765;45.794;24.150;2024-01-25T15:46:22;9.90;85.90
21518;DHT22;61765;45.794;24.150;2024-01-25T15:54:28;9.70;86.30
21518;DHT22;61765;45.794;24.150;2024-01-25T16:02:36;9.80;86.70
21518;DHT22;61765;45.794;24.150;2024-01-25T16:10:42;9.90;86.40
21518;DHT22;61765;45.794;24.150;2024-01-25T16:18:50;9.80;87.10
21518;DHT22;61765;45.794;24.150;2024-01-25T16:26:56;9.80;87.40
21518;DHT22;61765;45.794;24.150;2024-01-25T16:35:05;10.00;86.70
21518;DHT22;61765;45.794;24.150;2024-01-25T16:43:11;10.10;85.80
21518;DHT22;61765;45.794;24.150;2024-01-25T16:51:20;10.10;85.40
21518;DHT22;61765;45.794;24.150;2024-01-25T16:59:26;10.00;86.20
21518;DHT22;61765;45.794;24.150;2024-01-25T17:07:35;10.20;85.50
21518;DHT22;61765;45.794;24.150;2024-01-25T17:15:40;10.30;84.60
21518;DHT22;61765;45.794;24.150;2024-01-25T17:23:49;10.30;83.90
21518;DHT22;61765;45.794;24.150;2024-01-25T17:31:56;10.30;83.60
21518;DHT22;61765;45.794;24.150;2024-01-25T17:40:06;10.30;83.80
21518;DHT22;61765;45.794;24.150;2024-01-25T17:48:12;10.20;83.00
21518;DHT22;61765;45.794;24.150;2024-01-25T17:56:20;10.30;82.60
21518;DHT22;61765;45.794;24.150;2024-01-25T18:04:26;10.40;82.30
21518;DHT22;61765;45.794;24.150;2024-01-25T18:12:35;10.30;82.10
21518;DHT22;61765;45.794;24.150;2024-01-25T18:20:42;10.20;81.90
21518;DHT22;61765;45.794;24.150;2024-01-25T18:28:50;10.70;81.10
21518;DHT22;61765;45.794;24.150;2024-01-25T18:36:57;10.60;81.20
21518;DHT22;61765;45.794;24.150;2024-01-25T18:45:06;10.80;80.40
21518;DHT22;61765;45.794;24.150;2024-01-25T18:53:12;10.80;79.50
21518;DHT22;61765;45.794;24.150;2024-01-25T19:01:21;10.90;79.00
21518;DHT22;61765;45.794;24.150;2024-01-25T19:09:27;10.90;78.90
21518;DHT22;61765;45.794;24.150;2024-01-25T19:17:37;10.70;78.40
21518;DHT22;61765;45.794;24.150;2024-01-25T19:25:43;10.70;78.50
21518;DHT22;61765;45.794;24.150;2024-01-25T19:33:51;10.70;78.70
21518;DHT22;61765;45.794;24.150;2024-01-25T19:41:57;10.60;79.20
21518;DHT22;61765;45.794;24.150;2024-01-25T19:50:06;10.60;79.20
21518;DHT22;61765;45.794;24.150;2024-01-25T19:58:13;10.60;79.40
21518;DHT22;61765;45.794;24.150;2024-01-25T20:06:22;10.50;79.10
21518;DHT22;61765;45.794;24.150;2024-01-25T20:14:33;10.30;79.20
21518;DHT22;61765;45.794;24.150;2024-01-25T20:23:10;10.60;78.40
21518;DHT22;61765;45.794;24.150;2024-01-25T20:31:15;10.50;78.20
21518;DHT22;61765;45.794;24.150;2024-01-25T20:39:25;10.70;78.10
21518;DHT22;61765;45.794;24.150;2024-01-25T20:47:31;10.80;77.80
21518;DHT22;61765;45.794;24.150;2024-01-25T20:55:39;10.80;77.30
21518;DHT22;61765;45.794;24.150;2024-01-25T21:03:46;10.90;77.20
21518;DHT22;61765;45.794;24.150;2024-01-25T21:12:03;10.80;77.50
21518;DHT22;61765;45.794;24.150;2024-01-25T21:20:10;10.90;76.90
21518;DHT22;61765;45.794;24.150;2024-01-25T21:28:18;10.90;76.80
21518;DHT22;61765;45.794;24.150;2024-01-25T21:36:24;10.80;76.80
21518;DHT22;61765;45.794;24.150;2024-01-25T21:44:32;10.80;76.70
21518;DHT22;61765;45.794;24.150;2024-01-25T21:52:38;10.80;76.50
21518;DHT22;61765;45.794;24.150;2024-01-25T22:00:46;11.00;76.30
21518;DHT22;61765;45.794;24.150;2024-01-25T22:08:53;10.90;76.20
21518;DHT22;61765;45.794;24.150;2024-01-25T22:17:01;10.90;76.40
21518;DHT22;61765;45.794;24.150;2024-01-25T22:25:08;11.00;76.20
21518;DHT22;61765;45.794;24.150;2024-01-25T22:33:17;10.90;76.10
21518;DHT22;61765;45.794;24.150;2024-01-25T22:41:22;11.00;75.80
21518;DHT22;61765;45.794;24.150;2024-01-25T22:49:31;11.10;75.80
21518;DHT22;61765;45.794;24.150;2024-01-25T22:57:37;11.20;75.30
21518;DHT22;61765;45.794;24.150;2024-01-25T23:05:45;11.30;75.40
21518;DHT22;61765;45.794;24.150;2024-01-25T23:13:51;11.30;75.20
21518;DHT22;61765;45.794;24.150;2024-01-25T23:21:59;11.20;75.60
21518;DHT22;61765;45.794;24.150;2024-01-25T23:30:07;11.10;75.70
21518;DHT22;61765;45.794;24.150;2024-01-25T23:38:16;11.10;76.40
21518;DHT22;61765;45.794;24.150;2024-01-25T23:46:21;11.00;76.30
21518;DHT22;61765;45.794;24.150;2024-01-25T23:54:30;11.00;77.10
